sensor_id;sensor_type;location;lat;lon;timestamp;P1;durP1;ratioP1;P2;durP2;ratioP2
64637;SDS011;51049;45.046;38.950;2023-05-17T00:01:52;4.78;;;1.70;;
64637;SDS011;51049;45.046;38.950;2023-05-17T00:04:19;5.53;;;2.30;;
64637;SDS011;51049;45.046;38.950;2023-05-17T00:06:45;4.53;;;1.85;;
64637;SDS011;51049;45.046;38.950;2023-05-17T00:09:11;3.08;;;1.30;;
64637;SDS011;51049;45.046;38.950;2023-05-17T00:11:37;6.53;;;2.28;;
64637;SDS011;51049;45.046;38.950;2023-05-17T00:14:03;4.55;;;2.15;;
64637;SDS011;51049;45.046;38.950;2023-05-17T00:16:29;4.03;;;1.90;;
64637;SDS011;51049;45.046;38.950;2023-05-17T00:18:55;6.18;;;2.22;;
64637;SDS011;51049;45.046;38.950;2023-05-17T00:21:21;3.58;;;2.22;;
64637;SDS011;51049;45.046;38.950;2023-05-17T00:23:47;7.00;;;2.20;;
64637;SDS011;51049;45.046;38.950;2023-05-17T00:26:12;9.07;;;2.38;;
64637;SDS011;51049;45.046;38.950;2023-05-17T00:28:39;7.20;;;2.72;;
64637;SDS011;51049;45.046;38.950;2023-05-17T00:31:05;4.03;;;2.25;;
64637;SDS011;51049;45.046;38.950;2023-05-17T00:33:31;6.47;;;2.45;;
64637;SDS011;51049;45.046;38.950;2023-05-17T00:35:57;4.75;;;2.00;;
64637;SDS011;51049;45.046;38.950;2023-05-17T00:38:23;4.88;;;2.17;;
64637;SDS011;51049;45.046;38.950;2023-05-17T00:40:49;4.28;;;2.30;;
64637;SDS011;51049;45.046;38.950;2023-05-17T00:43:15;10.45;;;2.58;;
64637;SDS011;51049;45.046;38.950;2023-05-17T00:45:41;10.02;;;2.17;;
64637;SDS011;51049;45.046;38.950;2023-05-17T00:48:07;6.78;;;2.15;;
64637;SDS011;51049;45.046;38.950;2023-05-17T00:50:33;6.20;;;2.30;;
64637;SDS011;51049;45.046;38.950;2023-05-17T00:52:59;4.65;;;2.70;;
64637;SDS011;51049;45.046;38.950;2023-05-17T00:55:25;5.00;;;2.50;;
64637;SDS011;51049;45.046;38.950;2023-05-17T00:57:52;5.50;;;2.45;;
64637;SDS011;51049;45.046;38.950;2023-05-17T01:00:18;8.57;;;2.90;;
64637;SDS011;51049;45.046;38.950;2023-05-17T01:02:45;5.65;;;2.30;;
64637;SDS011;51049;45.046;38.950;2023-05-17T01:05:13;6.43;;;2.28;;
64637;SDS011;51049;45.046;38.950;2023-05-17T01:07:39;5.85;;;2.38;;
64637;SDS011;51049;45.046;38.950;2023-05-17T01:10:06;9.23;;;2.22;;
64637;SDS011;51049;45.046;38.950;2023-05-17T01:12:49;4.15;;;2.05;;
64637;SDS011;51049;45.046;38.950;2023-05-17T01:15:24;6.88;;;2.65;;
64637;SDS011;51049;45.046;38.950;2023-05-17T01:20:46;5.43;;;2.03;;
64637;SDS011;51049;45.046;38.950;2023-05-17T01:26:18;4.65;;;2.03;;
64637;SDS011;51049;45.046;38.950;2023-05-17T01:29:02;7.13;;;1.95;;
64637;SDS011;51049;45.046;38.950;2023-05-17T01:31:30;6.18;;;1.80;;
64637;SDS011;51049;45.046;38.950;2023-05-17T01:33:57;7.15;;;1.85;;
64637;SDS011;51049;45.046;38.950;2023-05-17T01:36:23;4.97;;;2.47;;
64637;SDS011;51049;45.046;38.950;2023-05-17T01:38:51;7.93;;;2.28;;
64637;SDS011;51049;45.046;38.950;2023-05-17T01:41:21;4.10;;;2.08;;
64637;SDS011;51049;45.046;38.950;2023-05-17T01:46:53;3.92;;;1.92;;
64637;SDS011;51049;45.046;38.950;2023-05-17T01:49:37;4.72;;;1.73;;
64637;SDS011;51049;45.046;38.950;2023-05-17T01:52:12;6.15;;;1.70;;
64637;SDS011;51049;45.046;38.950;2023-05-17T01:54:55;3.60;;;1.70;;
64637;SDS011;51049;45.046;38.950;2023-05-17T01:57:39;4.32;;;2.15;;
64637;SDS011;51049;45.046;38.950;2023-05-17T02:00:09;2.88;;;1.40;;
64637;SDS011;51049;45.046;38.950;2023-05-17T02:02:40;6.35;;;2.03;;
64637;SDS011;51049;45.046;38.950;2023-05-17T02:05:06;10.15;;;2.50;;
64637;SDS011;51049;45.046;38.950;2023-05-17T02:07:32;5.13;;;1.85;;
64637;SDS011;51049;45.046;38.950;2023-05-17T02:09:58;3.13;;;1.70;;
64637;SDS011;51049;45.046;38.950;2023-05-17T02:12:24;4.95;;;1.83;;
64637;SDS011;51049;45.046;38.950;2023-05-17T02:14:50;3.53;;;1.75;;
64637;SDS011;51049;45.046;38.950;2023-05-17T02:17:15;4.53;;;1.98;;
64637;SDS011;51049;45.046;38.950;2023-05-17T02:19:42;4.90;;;1.90;;
64637;SDS011;51049;45.046;38.950;2023-05-17T02:22:08;3.40;;;1.48;;
64637;SDS011;51049;45.046;38.950;2023-05-17T02:24:34;5.20;;;1.73;;
64637;SDS011;51049;45.046;38.950;2023-05-17T02:27:00;7.13;;;1.55;;
64637;SDS011;51049;45.046;38.950;2023-05-17T02:29:27;4.20;;;1.90;;
64637;SDS011;51049;45.046;38.950;2023-05-17T02:31:53;3.75;;;1.92;;
64637;SDS011;51049;45.046;38.950;2023-05-17T02:34:19;3.92;;;1.65;;
64637;SDS011;51049;45.046;38.950;2023-05-17T02:36:48;7.13;;;2.55;;
64637;SDS011;51049;45.046;38.950;2023-05-17T02:39:14;4.93;;;2.03;;
64637;SDS011;51049;45.046;38.950;2023-05-17T02:41:40;4.28;;;2.10;;
64637;SDS011;51049;45.046;38.950;2023-05-17T02:44:06;5.05;;;2.03;;
64637;SDS011;51049;45.046;38.950;2023-05-17T02:46:32;7.22;;;2.38;;
64637;SDS011;51049;45.046;38.950;2023-05-17T02:48:58;4.65;;;2.22;;
64637;SDS011;51049;45.046;38.950;2023-05-17T02:51:24;6.10;;;2.05;;
64637;SDS011;51049;45.046;38.950;2023-05-17T02:53:50;5.43;;;2.00;;
64637;SDS011;51049;45.046;38.950;2023-05-17T02:56:17;4.15;;;1.90;;
64637;SDS011;51049;45.046;38.950;2023-05-17T02:58:43;7.38;;;2.20;;
64637;SDS011;51049;45.046;38.950;2023-05-17T03:01:09;9.75;;;1.92;;
64637;SDS011;51049;45.046;38.950;2023-05-17T03:03:35;4.53;;;1.75;;
64637;SDS011;51049;45.046;38.950;2023-05-17T03:06:03;8.52;;;2.05;;
64637;SDS011;51049;45.046;38.950;2023-05-17T03:08:30;10.25;;;2.80;;
64637;SDS011;51049;45.046;38.950;2023-05-17T03:10:57;4.65;;;1.88;;
64637;SDS011;51049;45.046;38.950;2023-05-17T03:13:23;8.07;;;1.92;;
64637;SDS011;51049;45.046;38.950;2023-05-17T03:15:49;8.93;;;2.22;;
64637;SDS011;51049;45.046;38.950;2023-05-17T03:18:16;3.17;;;1.42;;
64637;SDS011;51049;45.046;38.950;2023-05-17T03:20:42;4.22;;;1.83;;
64637;SDS011;51049;45.046;38.950;2023-05-17T03:23:09;4.00;;;2.00;;
64637;SDS011;51049;45.046;38.950;2023-05-17T03:25:43;4.20;;;1.70;;
64637;SDS011;51049;45.046;38.950;2023-05-17T03:28:10;4.45;;;1.83;;
64637;SDS011;51049;45.046;38.950;2023-05-17T03:30:36;6.00;;;2.10;;
64637;SDS011;51049;45.046;38.950;2023-05-17T03:33:02;8.38;;;2.08;;
64637;SDS011;51049;45.046;38.950;2023-05-17T03:35:28;11.20;;;2.42;;
64637;SDS011;51049;45.046;38.950;2023-05-17T03:37:55;5.03;;;1.92;;
64637;SDS011;51049;45.046;38.950;2023-05-17T03:40:22;5.40;;;2.05;;
64637;SDS011;51049;45.046;38.950;2023-05-17T03:42:48;6.57;;;2.00;;
64637;SDS011;51049;45.046;38.950;2023-05-17T03:45:14;9.98;;;2.28;;
64637;SDS011;51049;45.046;38.950;2023-05-17T03:47:40;5.43;;;1.90;;
64637;SDS011;51049;45.046;38.950;2023-05-17T03:50:08;5.85;;;1.50;;
64637;SDS011;51049;45.046;38.950;2023-05-17T03:52:35;6.85;;;1.85;;
64637;SDS011;51049;45.046;38.950;2023-05-17T03:55:01;7.65;;;1.92;;
64637;SDS011;51049;45.046;38.950;2023-05-17T03:57:28;14.32;;;2.25;;
64637;SDS011;51049;45.046;38.950;2023-05-17T03:59:54;10.13;;;2.20;;
64637;SDS011;51049;45.046;38.950;2023-05-17T04:02:20;6.07;;;1.92;;
64637;SDS011;51049;45.046;38.950;2023-05-17T04:04:50;3.83;;;1.70;;
64637;SDS011;51049;45.046;38.950;2023-05-17T04:07:17;9.80;;;1.80;;
64637;SDS011;51049;45.046;38.950;2023-05-17T04:09:44;5.72;;;1.90;;
64637;SDS011;51049;45.046;38.950;2023-05-17T04:12:10;5.25;;;2.10;;
64637;SDS011;51049;45.046;38.950;2023-05-17T04:14:38;4.30;;;1.70;;
64637;SDS011;51049;45.046;38.950;2023-05-17T04:17:05;6.22;;;1.83;;
64637;SDS011;51049;45.046;38.950;2023-05-17T04:19:31;4.85;;;2.22;;
64637;SDS011;51049;45.046;38.950;2023-05-17T04:21:58;2.55;;;1.30;;
64637;SDS011;51049;45.046;38.950;2023-05-17T04:24:26;2.78;;;1.33;;
64637;SDS011;51049;45.046;38.950;2023-05-17T04:26:51;4.45;;;1.20;;
64637;SDS011;51049;45.046;38.950;2023-05-17T04:29:22;2.63;;;1.25;;
64637;SDS011;51049;45.046;38.950;2023-05-17T04:31:48;3.20;;;1.20;;
64637;SDS011;51049;45.046;38.950;2023-05-17T04:34:15;1.73;;;0.98;;
64637;SDS011;51049;45.046;38.950;2023-05-17T04:36:42;2.58;;;1.13;;
64637;SDS011;51049;45.046;38.950;2023-05-17T04:39:08;5.28;;;0.98;;
64637;SDS011;51049;45.046;38.950;2023-05-17T04:41:35;4.43;;;1.30;;
64637;SDS011;51049;45.046;38.950;2023-05-17T04:44:05;3.22;;;1.35;;
64637;SDS011;51049;45.046;38.950;2023-05-17T04:46:34;2.28;;;1.20;;
64637;SDS011;51049;45.046;38.950;2023-05-17T04:49:00;2.45;;;1.10;;
64637;SDS011;51049;45.046;38.950;2023-05-17T04:51:28;2.95;;;1.30;;
64637;SDS011;51049;45.046;38.950;2023-05-17T04:53:55;3.45;;;0.80;;
64637;SDS011;51049;45.046;38.950;2023-05-17T04:56:22;3.45;;;1.40;;
64637;SDS011;51049;45.046;38.950;2023-05-17T04:58:49;2.47;;;1.13;;
64637;SDS011;51049;45.046;38.950;2023-05-17T05:01:15;5.47;;;1.48;;
64637;SDS011;51049;45.046;38.950;2023-05-17T05:03:41;1.70;;;1.10;;
64637;SDS011;51049;45.046;38.950;2023-05-17T05:06:09;5.05;;;1.15;;
64637;SDS011;51049;45.046;38.950;2023-05-17T05:08:36;3.60;;;1.02;;
64637;SDS011;51049;45.046;38.950;2023-05-17T05:11:04;4.35;;;1.25;;
64637;SDS011;51049;45.046;38.950;2023-05-17T05:13:30;5.95;;;1.10;;
64637;SDS011;51049;45.046;38.950;2023-05-17T05:15:56;5.10;;;1.00;;
64637;SDS011;51049;45.046;38.950;2023-05-17T05:18:23;4.35;;;1.00;;
64637;SDS011;51049;45.046;38.950;2023-05-17T05:20:49;2.63;;;1.35;;
64637;SDS011;51049;45.046;38.950;2023-05-17T05:23:16;3.25;;;1.40;;
64637;SDS011;51049;45.046;38.950;2023-05-17T05:25:45;2.55;;;1.10;;
64637;SDS011;51049;45.046;38.950;2023-05-17T05:28:12;2.25;;;1.25;;
64637;SDS011;51049;45.046;38.950;2023-05-17T05:30:39;4.05;;;1.10;;
64637;SDS011;51049;45.046;38.950;2023-05-17T05:33:05;3.78;;;1.30;;
64637;SDS011;51049;45.046;38.950;2023-05-17T05:35:31;2.22;;;1.08;;
64637;SDS011;51049;45.046;38.950;2023-05-17T05:37:57;1.80;;;1.10;;
64637;SDS011;51049;45.046;38.950;2023-05-17T05:40:24;2.28;;;0.80;;
64637;SDS011;51049;45.046;38.950;2023-05-17T05:42:50;1.52;;;0.80;;
64637;SDS011;51049;45.046;38.950;2023-05-17T05:45:16;7.38;;;1.33;;
64637;SDS011;51049;45.046;38.950;2023-05-17T05:47:46;2.60;;;1.02;;
64637;SDS011;51049;45.046;38.950;2023-05-17T05:50:12;2.92;;;0.75;;
64637;SDS011;51049;45.046;38.950;2023-05-17T05:52:39;2.38;;;0.93;;
64637;SDS011;51049;45.046;38.950;2023-05-17T05:55:06;2.58;;;1.10;;
64637;SDS011;51049;45.046;38.950;2023-05-17T05:57:32;6.88;;;1.20;;
64637;SDS011;51049;45.046;38.950;2023-05-17T05:59:59;3.13;;;1.50;;
64637;SDS011;51049;45.046;38.950;2023-05-17T06:02:25;5.00;;;1.10;;
64637;SDS011;51049;45.046;38.950;2023-05-17T06:04:52;3.50;;;1.15;;
64637;SDS011;51049;45.046;38.950;2023-05-17T06:07:18;2.78;;;1.13;;
64637;SDS011;51049;45.046;38.950;2023-05-17T06:09:44;2.50;;;1.08;;
64637;SDS011;51049;45.046;38.950;2023-05-17T06:12:10;2.40;;;0.90;;
64637;SDS011;51049;45.046;38.950;2023-05-17T06:14:36;1.95;;;0.98;;
64637;SDS011;51049;45.046;38.950;2023-05-17T06:17:02;3.83;;;1.13;;
64637;SDS011;51049;45.046;38.950;2023-05-17T06:19:29;1.77;;;0.77;;
64637;SDS011;51049;45.046;38.950;2023-05-17T06:21:55;2.72;;;0.82;;
64637;SDS011;51049;45.046;38.950;2023-05-17T06:24:21;3.33;;;0.90;;
64637;SDS011;51049;45.046;38.950;2023-05-17T06:26:47;7.30;;;0.90;;
64637;SDS011;51049;45.046;38.950;2023-05-17T06:29:13;1.30;;;0.82;;
64637;SDS011;51049;45.046;38.950;2023-05-17T06:31:38;6.22;;;1.00;;
64637;SDS011;51049;45.046;38.950;2023-05-17T06:34:04;1.85;;;0.88;;
64637;SDS011;51049;45.046;38.950;2023-05-17T06:36:30;1.50;;;0.88;;
64637;SDS011;51049;45.046;38.950;2023-05-17T06:38:57;3.03;;;0.88;;
64637;SDS011;51049;45.046;38.950;2023-05-17T06:41:22;4.85;;;0.98;;
64637;SDS011;51049;45.046;38.950;2023-05-17T06:43:48;1.40;;;0.82;;
64637;SDS011;51049;45.046;38.950;2023-05-17T06:46:14;1.67;;;0.90;;
64637;SDS011;51049;45.046;38.950;2023-05-17T06:48:40;4.15;;;1.35;;
64637;SDS011;51049;45.046;38.950;2023-05-17T06:51:06;3.55;;;0.90;;
64637;SDS011;51049;45.046;38.950;2023-05-17T06:53:32;1.33;;;0.88;;
64637;SDS011;51049;45.046;38.950;2023-05-17T06:55:58;3.90;;;0.90;;
64637;SDS011;51049;45.046;38.950;2023-05-17T06:58:24;2.13;;;0.90;;
64637;SDS011;51049;45.046;38.950;2023-05-17T07:00:50;1.67;;;0.70;;
64637;SDS011;51049;45.046;38.950;2023-05-17T07:03:16;5.13;;;1.92;;
64637;SDS011;51049;45.046;38.950;2023-05-17T07:05:42;2.40;;;1.10;;
64637;SDS011;51049;45.046;38.950;2023-05-17T07:08:08;1.90;;;0.75;;
64637;SDS011;51049;45.046;38.950;2023-05-17T07:10:34;1.75;;;0.73;;
64637;SDS011;51049;45.046;38.950;2023-05-17T07:13:00;0.68;;;0.60;;
64637;SDS011;51049;45.046;38.950;2023-05-17T07:15:26;1.55;;;0.80;;
64637;SDS011;51049;45.046;38.950;2023-05-17T07:17:52;2.63;;;0.70;;
64637;SDS011;51049;45.046;38.950;2023-05-17T07:20:18;1.63;;;0.80;;
64637;SDS011;51049;45.046;38.950;2023-05-17T07:22:44;1.33;;;0.80;;
64637;SDS011;51049;45.046;38.950;2023-05-17T07:25:10;5.93;;;0.90;;
64637;SDS011;51049;45.046;38.950;2023-05-17T07:27:36;1.80;;;0.90;;
64637;SDS011;51049;45.046;38.950;2023-05-17T07:30:02;3.00;;;1.10;;
64637;SDS011;51049;45.046;38.950;2023-05-17T07:32:28;4.32;;;0.90;;
64637;SDS011;51049;45.046;38.950;2023-05-17T07:34:54;5.07;;;1.25;;
64637;SDS011;51049;45.046;38.950;2023-05-17T07:37:20;4.13;;;0.90;;
64637;SDS011;51049;45.046;38.950;2023-05-17T07:39:46;1.83;;;0.88;;
64637;SDS011;51049;45.046;38.950;2023-05-17T07:42:12;2.22;;;1.00;;
64637;SDS011;51049;45.046;38.950;2023-05-17T07:44:38;4.22;;;1.33;;
64637;SDS011;51049;45.046;38.950;2023-05-17T07:47:04;1.58;;;0.90;;
64637;SDS011;51049;45.046;38.950;2023-05-17T07:49:30;2.08;;;1.00;;
64637;SDS011;51049;45.046;38.950;2023-05-17T07:51:56;2.80;;;1.23;;
64637;SDS011;51049;45.046;38.950;2023-05-17T07:54:22;1.90;;;0.85;;
64637;SDS011;51049;45.046;38.950;2023-05-17T07:56:49;5.00;;;0.88;;
64637;SDS011;51049;45.046;38.950;2023-05-17T07:59:17;2.50;;;0.80;;
64637;SDS011;51049;45.046;38.950;2023-05-17T08:01:43;0.90;;;0.60;;
64637;SDS011;51049;45.046;38.950;2023-05-17T08:04:10;2.55;;;1.02;;
64637;SDS011;51049;45.046;38.950;2023-05-17T08:06:36;2.38;;;0.80;;
64637;SDS011;51049;45.046;38.950;2023-05-17T08:09:02;1.00;;;0.70;;
64637;SDS011;51049;45.046;38.950;2023-05-17T08:11:28;3.03;;;0.90;;
64637;SDS011;51049;45.046;38.950;2023-05-17T08:13:54;1.08;;;0.70;;
64637;SDS011;51049;45.046;38.950;2023-05-17T08:16:20;2.38;;;0.80;;
64637;SDS011;51049;45.046;38.950;2023-05-17T08:18:46;2.00;;;1.05;;
64637;SDS011;51049;45.046;38.950;2023-05-17T08:21:12;1.83;;;0.85;;
64637;SDS011;51049;45.046;38.950;2023-05-17T08:23:39;3.97;;;1.15;;
64637;SDS011;51049;45.046;38.950;2023-05-17T08:26:06;3.58;;;1.10;;
64637;SDS011;51049;45.046;38.950;2023-05-17T08:28:32;1.60;;;0.70;;
64637;SDS011;51049;45.046;38.950;2023-05-17T08:30:58;4.57;;;1.23;;
64637;SDS011;51049;45.046;38.950;2023-05-17T08:33:24;1.98;;;1.00;;
64637;SDS011;51049;45.046;38.950;2023-05-17T08:35:51;2.25;;;0.90;;
64637;SDS011;51049;45.046;38.950;2023-05-17T08:38:20;4.85;;;1.00;;
64637;SDS011;51049;45.046;38.950;2023-05-17T08:40:52;1.40;;;0.80;;
64637;SDS011;51049;45.046;38.950;2023-05-17T08:43:19;2.85;;;1.00;;
64637;SDS011;51049;45.046;38.950;2023-05-17T08:45:47;5.80;;;1.08;;
64637;SDS011;51049;45.046;38.950;2023-05-17T08:48:14;1.48;;;0.90;;
64637;SDS011;51049;45.046;38.950;2023-05-17T08:50:49;2.22;;;1.05;;
64637;SDS011;51049;45.046;38.950;2023-05-17T08:53:15;1.67;;;1.08;;
64637;SDS011;51049;45.046;38.950;2023-05-17T08:55:43;1.70;;;1.08;;
64637;SDS011;51049;45.046;38.950;2023-05-17T08:58:14;1.30;;;0.90;;
64637;SDS011;51049;45.046;38.950;2023-05-17T09:00:43;5.00;;;1.35;;
64637;SDS011;51049;45.046;38.950;2023-05-17T09:03:12;1.40;;;0.70;;
64637;SDS011;51049;45.046;38.950;2023-05-17T09:05:42;2.33;;;0.80;;
64637;SDS011;51049;45.046;38.950;2023-05-17T09:08:11;1.52;;;0.75;;
64637;SDS011;51049;45.046;38.950;2023-05-17T09:10:41;2.45;;;1.15;;
64637;SDS011;51049;45.046;38.950;2023-05-17T09:13:09;1.63;;;0.70;;
64637;SDS011;51049;45.046;38.950;2023-05-17T09:15:42;1.80;;;0.88;;
64637;SDS011;51049;45.046;38.950;2023-05-17T09:18:11;1.52;;;0.75;;
64637;SDS011;51049;45.046;38.950;2023-05-17T09:20:38;4.60;;;1.30;;
64637;SDS011;51049;45.046;38.950;2023-05-17T09:23:05;3.72;;;1.00;;
64637;SDS011;51049;45.046;38.950;2023-05-17T09:25:37;2.20;;;1.10;;
64637;SDS011;51049;45.046;38.950;2023-05-17T09:28:10;4.07;;;1.17;;
64637;SDS011;51049;45.046;38.950;2023-05-17T09:30:37;2.17;;;1.08;;
64637;SDS011;51049;45.046;38.950;2023-05-17T09:33:04;2.22;;;0.80;;
64637;SDS011;51049;45.046;38.950;2023-05-17T09:35:32;2.80;;;0.80;;
64637;SDS011;51049;45.046;38.950;2023-05-17T09:38:09;2.20;;;0.82;;
64637;SDS011;51049;45.046;38.950;2023-05-17T09:40:39;8.95;;;1.20;;
64637;SDS011;51049;45.046;38.950;2023-05-17T09:43:07;5.90;;;1.15;;
64637;SDS011;51049;45.046;38.950;2023-05-17T09:45:34;2.15;;;1.00;;
64637;SDS011;51049;45.046;38.950;2023-05-17T09:48:13;3.60;;;1.17;;
64637;SDS011;51049;45.046;38.950;2023-05-17T09:50:46;2.17;;;1.10;;
64637;SDS011;51049;45.046;38.950;2023-05-17T09:53:28;1.65;;;0.93;;
64637;SDS011;51049;45.046;38.950;2023-05-17T09:55:57;3.00;;;1.20;;
64637;SDS011;51049;45.046;38.950;2023-05-17T09:58:24;2.90;;;1.02;;
64637;SDS011;51049;45.046;38.950;2023-05-17T10:00:54;2.15;;;1.00;;
64637;SDS011;51049;45.046;38.950;2023-05-17T10:03:28;4.32;;;1.00;;
64637;SDS011;51049;45.046;38.950;2023-05-17T10:05:55;7.45;;;1.30;;
64637;SDS011;51049;45.046;38.950;2023-05-17T10:08:22;1.92;;;0.90;;
64637;SDS011;51049;45.046;38.950;2023-05-17T10:10:55;1.92;;;1.00;;
64637;SDS011;51049;45.046;38.950;2023-05-17T10:13:29;3.00;;;1.35;;
64637;SDS011;51049;45.046;38.950;2023-05-17T10:18:25;2.17;;;1.20;;
64637;SDS011;51049;45.046;38.950;2023-05-17T10:20:53;2.75;;;1.42;;
64637;SDS011;51049;45.046;38.950;2023-05-17T10:23:20;3.38;;;1.13;;
64637;SDS011;51049;45.046;38.950;2023-05-17T10:25:47;2.22;;;1.02;;
64637;SDS011;51049;45.046;38.950;2023-05-17T10:28:14;2.70;;;1.20;;
64637;SDS011;51049;45.046;38.950;2023-05-17T10:30:42;5.10;;;1.05;;
64637;SDS011;51049;45.046;38.950;2023-05-17T10:33:08;2.30;;;1.02;;
64637;SDS011;51049;45.046;38.950;2023-05-17T10:35:36;3.63;;;1.30;;
64637;SDS011;51049;45.046;38.950;2023-05-17T10:38:03;2.55;;;1.25;;
64637;SDS011;51049;45.046;38.950;2023-05-17T10:40:29;2.75;;;1.10;;
64637;SDS011;51049;45.046;38.950;2023-05-17T10:42:57;2.58;;;1.20;;
64637;SDS011;51049;45.046;38.950;2023-05-17T10:45:24;6.88;;;1.20;;
64637;SDS011;51049;45.046;38.950;2023-05-17T10:47:51;5.65;;;1.23;;
64637;SDS011;51049;45.046;38.950;2023-05-17T10:50:21;3.83;;;1.33;;
64637;SDS011;51049;45.046;38.950;2023-05-17T10:52:48;2.47;;;1.30;;
64637;SDS011;51049;45.046;38.950;2023-05-17T10:55:22;4.18;;;1.17;;
64637;SDS011;51049;45.046;38.950;2023-05-17T11:00:48;3.15;;;1.38;;
64637;SDS011;51049;45.046;38.950;2023-05-17T11:03:16;5.50;;;1.70;;
64637;SDS011;51049;45.046;38.950;2023-05-17T11:08:41;5.47;;;1.20;;
64637;SDS011;51049;45.046;38.950;2023-05-17T11:11:13;2.38;;;1.42;;
64637;SDS011;51049;45.046;38.950;2023-05-17T11:13:43;4.90;;;1.38;;
64637;SDS011;51049;45.046;38.950;2023-05-17T11:16:12;3.58;;;1.15;;
64637;SDS011;51049;45.046;38.950;2023-05-17T11:18:51;5.07;;;1.63;;
64637;SDS011;51049;45.046;38.950;2023-05-17T11:21:18;7.53;;;1.90;;
64637;SDS011;51049;45.046;38.950;2023-05-17T11:23:46;2.58;;;1.33;;
64637;SDS011;51049;45.046;38.950;2023-05-17T11:26:20;5.70;;;1.52;;
64637;SDS011;51049;45.046;38.950;2023-05-17T11:28:46;4.10;;;1.73;;
64637;SDS011;51049;45.046;38.950;2023-05-17T11:31:13;4.32;;;1.48;;
64637;SDS011;51049;45.046;38.950;2023-05-17T11:33:43;4.50;;;1.73;;
64637;SDS011;51049;45.046;38.950;2023-05-17T11:36:19;4.40;;;1.42;;
64637;SDS011;51049;45.046;38.950;2023-05-17T11:38:47;3.53;;;1.80;;
64637;SDS011;51049;45.046;38.950;2023-05-17T11:41:18;6.43;;;1.85;;
64637;SDS011;51049;45.046;38.950;2023-05-17T11:43:46;4.13;;;1.70;;
64637;SDS011;51049;45.046;38.950;2023-05-17T11:46:17;3.60;;;1.70;;
64637;SDS011;51049;45.046;38.950;2023-05-17T11:48:45;4.65;;;1.33;;
64637;SDS011;51049;45.046;38.950;2023-05-17T11:51:12;4.00;;;1.58;;
64637;SDS011;51049;45.046;38.950;2023-05-17T11:53:42;8.27;;;1.75;;
64637;SDS011;51049;45.046;38.950;2023-05-17T11:56:08;3.72;;;1.92;;
64637;SDS011;51049;45.046;38.950;2023-05-17T11:58:35;5.32;;;1.52;;
64637;SDS011;51049;45.046;38.950;2023-05-17T12:01:02;4.88;;;1.92;;
64637;SDS011;51049;45.046;38.950;2023-05-17T12:03:29;2.47;;;1.40;;
64637;SDS011;51049;45.046;38.950;2023-05-17T12:06:12;3.25;;;1.60;;
64637;SDS011;51049;45.046;38.950;2023-05-17T12:08:42;3.63;;;1.40;;
64637;SDS011;51049;45.046;38.950;2023-05-17T12:11:13;4.43;;;1.48;;
64637;SDS011;51049;45.046;38.950;2023-05-17T12:13:41;6.10;;;1.40;;
64637;SDS011;51049;45.046;38.950;2023-05-17T12:16:11;3.40;;;1.30;;
64637;SDS011;51049;45.046;38.950;2023-05-17T12:21:08;3.80;;;1.40;;
64637;SDS011;51049;45.046;38.950;2023-05-17T12:23:38;3.33;;;1.15;;
64637;SDS011;51049;45.046;38.950;2023-05-17T12:26:13;4.15;;;1.63;;
64637;SDS011;51049;45.046;38.950;2023-05-17T12:31:12;8.13;;;1.55;;
64637;SDS011;51049;45.046;38.950;2023-05-17T12:33:41;3.95;;;1.30;;
64637;SDS011;51049;45.046;38.950;2023-05-17T12:36:09;2.50;;;1.40;;
64637;SDS011;51049;45.046;38.950;2023-05-17T12:38:38;5.30;;;1.60;;
64637;SDS011;51049;45.046;38.950;2023-05-17T12:41:06;2.85;;;1.30;;
64637;SDS011;51049;45.046;38.950;2023-05-17T12:43:33;2.67;;;1.30;;
64637;SDS011;51049;45.046;38.950;2023-05-17T12:48:45;2.53;;;1.10;;
64637;SDS011;51049;45.046;38.950;2023-05-17T12:51:13;4.85;;;1.30;;
64637;SDS011;51049;45.046;38.950;2023-05-17T12:53:41;2.97;;;1.45;;
64637;SDS011;51049;45.046;38.950;2023-05-17T12:56:33;5.78;;;1.52;;
64637;SDS011;51049;45.046;38.950;2023-05-17T12:59:03;4.72;;;1.40;;
64637;SDS011;51049;45.046;38.950;2023-05-17T13:01:50;2.70;;;1.50;;
64637;SDS011;51049;45.046;38.950;2023-05-17T13:04:18;4.57;;;1.20;;
64637;SDS011;51049;45.046;38.950;2023-05-17T13:06:56;3.42;;;1.58;;
64637;SDS011;51049;45.046;38.950;2023-05-17T13:09:25;6.13;;;1.40;;
64637;SDS011;51049;45.046;38.950;2023-05-17T13:11:56;3.25;;;1.30;;
64637;SDS011;51049;45.046;38.950;2023-05-17T13:14:44;4.10;;;1.30;;
64637;SDS011;51049;45.046;38.950;2023-05-17T13:17:15;1.83;;;1.13;;
64637;SDS011;51049;45.046;38.950;2023-05-17T13:19:46;3.38;;;1.27;;
64637;SDS011;51049;45.046;38.950;2023-05-17T13:22:13;4.88;;;1.83;;
64637;SDS011;51049;45.046;38.950;2023-05-17T13:24:40;3.75;;;1.38;;
64637;SDS011;51049;45.046;38.950;2023-05-17T13:27:06;6.72;;;1.55;;
64637;SDS011;51049;45.046;38.950;2023-05-17T13:29:33;3.08;;;1.50;;
64637;SDS011;51049;45.046;38.950;2023-05-17T13:32:03;8.38;;;1.63;;
64637;SDS011;51049;45.046;38.950;2023-05-17T13:34:30;4.78;;;1.38;;
64637;SDS011;51049;45.046;38.950;2023-05-17T13:36:56;4.10;;;1.48;;
64637;SDS011;51049;45.046;38.950;2023-05-17T13:39:22;6.60;;;1.70;;
64637;SDS011;51049;45.046;38.950;2023-05-17T13:41:48;4.30;;;1.83;;
64637;SDS011;51049;45.046;38.950;2023-05-17T13:44:14;5.93;;;1.60;;
64637;SDS011;51049;45.046;38.950;2023-05-17T13:46:40;5.40;;;1.50;;
64637;SDS011;51049;45.046;38.950;2023-05-17T13:49:05;4.18;;;1.20;;
64637;SDS011;51049;45.046;38.950;2023-05-17T13:51:32;3.55;;;1.30;;
64637;SDS011;51049;45.046;38.950;2023-05-17T13:53:59;2.22;;;1.20;;
64637;SDS011;51049;45.046;38.950;2023-05-17T13:56:25;3.05;;;1.30;;
64637;SDS011;51049;45.046;38.950;2023-05-17T13:58:51;2.00;;;1.15;;
64637;SDS011;51049;45.046;38.950;2023-05-17T14:01:17;6.00;;;1.80;;
64637;SDS011;51049;45.046;38.950;2023-05-17T14:03:43;4.50;;;1.50;;
64637;SDS011;51049;45.046;38.950;2023-05-17T14:06:10;2.30;;;1.23;;
64637;SDS011;51049;45.046;38.950;2023-05-17T14:08:36;2.10;;;1.10;;
64637;SDS011;51049;45.046;38.950;2023-05-17T14:11:02;4.88;;;1.20;;
64637;SDS011;51049;45.046;38.950;2023-05-17T14:13:28;10.93;;;1.85;;
64637;SDS011;51049;45.046;38.950;2023-05-17T14:15:54;4.88;;;1.17;;
64637;SDS011;51049;45.046;38.950;2023-05-17T14:18:20;5.45;;;1.20;;
64637;SDS011;51049;45.046;38.950;2023-05-17T14:20:46;2.15;;;1.20;;
64637;SDS011;51049;45.046;38.950;2023-05-17T14:23:12;2.00;;;1.20;;
64637;SDS011;51049;45.046;38.950;2023-05-17T14:25:38;2.47;;;0.88;;
64637;SDS011;51049;45.046;38.950;2023-05-17T14:28:04;3.90;;;1.20;;
64637;SDS011;51049;45.046;38.950;2023-05-17T14:30:30;7.30;;;1.40;;
64637;SDS011;51049;45.046;38.950;2023-05-17T14:32:56;4.00;;;1.35;;
64637;SDS011;51049;45.046;38.950;2023-05-17T14:35:23;4.00;;;1.10;;
64637;SDS011;51049;45.046;38.950;2023-05-17T14:37:49;2.15;;;0.95;;
64637;SDS011;51049;45.046;38.950;2023-05-17T14:40:15;2.03;;;0.85;;
64637;SDS011;51049;45.046;38.950;2023-05-17T14:42:41;2.13;;;1.13;;
64637;SDS011;51049;45.046;38.950;2023-05-17T14:45:07;3.28;;;1.20;;
64637;SDS011;51049;45.046;38.950;2023-05-17T14:47:34;2.50;;;1.35;;
64637;SDS011;51049;45.046;38.950;2023-05-17T14:50:00;3.17;;;1.40;;
64637;SDS011;51049;45.046;38.950;2023-05-17T14:52:26;3.97;;;1.20;;
64637;SDS011;51049;45.046;38.950;2023-05-17T14:54:52;1.83;;;1.10;;
64637;SDS011;51049;45.046;38.950;2023-05-17T14:57:18;5.57;;;1.30;;
64637;SDS011;51049;45.046;38.950;2023-05-17T14:59:46;6.32;;;1.30;;
64637;SDS011;51049;45.046;38.950;2023-05-17T15:02:12;2.53;;;1.30;;